sensor_id;sensor_type;location;lat;lon;timestamp;P1;durP1;ratioP1;P2;durP2;ratioP2
52057;SDS011;38063;53.210;6.504;2024-02-23T00:02:15;5.63;;;1.25;;
52057;SDS011;38063;53.210;6.504;2024-02-23T00:04:40;4.22;;;0.60;;
52057;SDS011;38063;53.210;6.504;2024-02-23T00:07:06;4.72;;;1.10;;
52057;SDS011;38063;53.210;6.504;2024-02-23T00:09:33;3.75;;;0.90;;
52057;SDS011;38063;53.210;6.504;2024-02-23T00:11:59;4.38;;;0.80;;
52057;SDS011;38063;53.210;6.504;2024-02-23T00:14:25;4.07;;;0.90;;
52057;SDS011;38063;53.210;6.504;2024-02-23T00:16:50;5.95;;;1.10;;
52057;SDS011;38063;53.210;6.504;2024-02-23T00:19:16;2.47;;;0.93;;
52057;SDS011;38063;53.210;6.504;2024-02-23T00:21:44;6.38;;;1.05;;
52057;SDS011;38063;53.210;6.504;2024-02-23T00:24:14;4.88;;;1.05;;
52057;SDS011;38063;53.210;6.504;2024-02-23T00:26:41;2.55;;;0.63;;
52057;SDS011;38063;53.210;6.504;2024-02-23T00:29:07;4.40;;;0.82;;
52057;SDS011;38063;53.210;6.504;2024-02-23T00:31:34;3.83;;;1.10;;
52057;SDS011;38063;53.210;6.504;2024-02-23T00:34:02;11.15;;;1.70;;
52057;SDS011;38063;53.210;6.504;2024-02-23T00:36:28;4.03;;;0.70;;
52057;SDS011;38063;53.210;6.504;2024-02-23T00:38:54;5.85;;;1.02;;
52057;SDS011;38063;53.210;6.504;2024-02-23T00:41:20;4.72;;;1.00;;
52057;SDS011;38063;53.210;6.504;2024-02-23T00:43:45;6.90;;;0.82;;
52057;SDS011;38063;53.210;6.504;2024-02-23T00:46:12;8.00;;;1.60;;
52057;SDS011;38063;53.210;6.504;2024-02-23T00:48:39;5.05;;;0.88;;
52057;SDS011;38063;53.210;6.504;2024-02-23T00:51:05;2.03;;;0.93;;
52057;SDS011;38063;53.210;6.504;2024-02-23T00:53:31;9.60;;;1.42;;
52057;SDS011;38063;53.210;6.504;2024-02-23T00:55:57;6.68;;;0.80;;
52057;SDS011;38063;53.210;6.504;2024-02-23T00:58:22;5.90;;;1.08;;
52057;SDS011;38063;53.210;6.504;2024-02-23T01:00:48;3.40;;;0.90;;
52057;SDS011;38063;53.210;6.504;2024-02-23T01:03:14;4.32;;;0.98;;
52057;SDS011;38063;53.210;6.504;2024-02-23T01:05:40;3.35;;;1.00;;
52057;SDS011;38063;53.210;6.504;2024-02-23T01:08:07;8.30;;;1.42;;
52057;SDS011;38063;53.210;6.504;2024-02-23T01:10:33;4.70;;;1.10;;
52057;SDS011;38063;53.210;6.504;2024-02-23T01:12:59;5.43;;;1.05;;
52057;SDS011;38063;53.210;6.504;2024-02-23T01:15:25;5.13;;;1.40;;
52057;SDS011;38063;53.210;6.504;2024-02-23T01:17:50;7.40;;;1.25;;
52057;SDS011;38063;53.210;6.504;2024-02-23T01:20:16;4.53;;;1.20;;
52057;SDS011;38063;53.210;6.504;2024-02-23T01:22:42;4.60;;;1.10;;
52057;SDS011;38063;53.210;6.504;2024-02-23T01:25:08;4.47;;;1.40;;
52057;SDS011;38063;53.210;6.504;2024-02-23T01:27:34;3.25;;;1.05;;
52057;SDS011;38063;53.210;6.504;2024-02-23T01:29:59;6.85;;;1.10;;
52057;SDS011;38063;53.210;6.504;2024-02-23T01:32:25;4.03;;;1.15;;
52057;SDS011;38063;53.210;6.504;2024-02-23T01:34:51;8.32;;;1.73;;
52057;SDS011;38063;53.210;6.504;2024-02-23T01:37:17;11.45;;;1.33;;
52057;SDS011;38063;53.210;6.504;2024-02-23T01:39:43;6.60;;;1.55;;
52057;SDS011;38063;53.210;6.504;2024-02-23T01:42:08;7.78;;;1.65;;
52057;SDS011;38063;53.210;6.504;2024-02-23T01:44:34;6.85;;;1.73;;
52057;SDS011;38063;53.210;6.504;2024-02-23T01:47:00;6.55;;;1.60;;
52057;SDS011;38063;53.210;6.504;2024-02-23T01:49:26;7.10;;;1.60;;
52057;SDS011;38063;53.210;6.504;2024-02-23T01:51:55;11.10;;;1.58;;
52057;SDS011;38063;53.210;6.504;2024-02-23T01:54:22;6.28;;;1.20;;
52057;SDS011;38063;53.210;6.504;2024-02-23T01:56:48;10.63;;;2.15;;
52057;SDS011;38063;53.210;6.504;2024-02-23T01:59:14;9.40;;;2.88;;
52057;SDS011;38063;53.210;6.504;2024-02-23T02:01:42;7.80;;;1.40;;
52057;SDS011;38063;53.210;6.504;2024-02-23T02:04:09;8.65;;;1.48;;
52057;SDS011;38063;53.210;6.504;2024-02-23T02:06:34;10.85;;;1.27;;
52057;SDS011;38063;53.210;6.504;2024-02-23T02:09:01;10.18;;;2.38;;
52057;SDS011;38063;53.210;6.504;2024-02-23T02:11:27;10.40;;;1.90;;
52057;SDS011;38063;53.210;6.504;2024-02-23T02:17:25;8.70;;;2.03;;
52057;SDS011;38063;53.210;6.504;2024-02-23T02:19:50;12.25;;;2.03;;
52057;SDS011;38063;53.210;6.504;2024-02-23T02:22:17;11.52;;;1.73;;
52057;SDS011;38063;53.210;6.504;2024-02-23T02:24:42;12.68;;;3.22;;
52057;SDS011;38063;53.210;6.504;2024-02-23T02:27:11;6.55;;;1.80;;
52057;SDS011;38063;53.210;6.504;2024-02-23T02:29:37;14.80;;;3.05;;
52057;SDS011;38063;53.210;6.504;2024-02-23T02:32:03;7.75;;;2.08;;
52057;SDS011;38063;53.210;6.504;2024-02-23T02:34:29;10.15;;;2.05;;
52057;SDS011;38063;53.210;6.504;2024-02-23T02:36:55;9.25;;;2.58;;
52057;SDS011;38063;53.210;6.504;2024-02-23T02:39:20;9.23;;;2.50;;
52057;SDS011;38063;53.210;6.504;2024-02-23T02:41:47;9.85;;;1.80;;
52057;SDS011;38063;53.210;6.504;2024-02-23T02:44:14;5.38;;;1.48;;
52057;SDS011;38063;53.210;6.504;2024-02-23T02:46:40;12.80;;;1.92;;
52057;SDS011;38063;53.210;6.504;2024-02-23T02:49:06;12.38;;;2.00;;
52057;SDS011;38063;53.210;6.504;2024-02-23T02:51:32;11.55;;;2.35;;
52057;SDS011;38063;53.210;6.504;2024-02-23T02:53:57;13.50;;;1.95;;
52057;SDS011;38063;53.210;6.504;2024-02-23T02:56:23;12.15;;;2.22;;
52057;SDS011;38063;53.210;6.504;2024-02-23T02:58:49;8.38;;;1.60;;
52057;SDS011;38063;53.210;6.504;2024-02-23T03:01:14;17.80;;;2.13;;
52057;SDS011;38063;53.210;6.504;2024-02-23T03:03:40;12.73;;;2.25;;
52057;SDS011;38063;53.210;6.504;2024-02-23T03:06:07;8.25;;;1.50;;
52057;SDS011;38063;53.210;6.504;2024-02-23T03:08:33;12.63;;;1.90;;
52057;SDS011;38063;53.210;6.504;2024-02-23T03:10:59;7.85;;;1.73;;
52057;SDS011;38063;53.210;6.504;2024-02-23T03:13:24;6.97;;;1.83;;
52057;SDS011;38063;53.210;6.504;2024-02-23T03:15:50;12.27;;;1.58;;
52057;SDS011;38063;53.210;6.504;2024-02-23T03:18:15;8.63;;;1.50;;
52057;SDS011;38063;53.210;6.504;2024-02-23T03:20:41;10.45;;;1.67;;
52057;SDS011;38063;53.210;6.504;2024-02-23T03:23:07;9.23;;;1.80;;
52057;SDS011;38063;53.210;6.504;2024-02-23T03:25:33;8.98;;;1.60;;
52057;SDS011;38063;53.210;6.504;2024-02-23T03:27:58;10.63;;;1.77;;
52057;SDS011;38063;53.210;6.504;2024-02-23T03:30:24;8.43;;;1.55;;
52057;SDS011;38063;53.210;6.504;2024-02-23T03:32:50;9.32;;;1.63;;
52057;SDS011;38063;53.210;6.504;2024-02-23T03:35:15;9.93;;;1.52;;
52057;SDS011;38063;53.210;6.504;2024-02-23T03:37:41;11.55;;;1.80;;
52057;SDS011;38063;53.210;6.504;2024-02-23T03:40:07;6.22;;;1.30;;
52057;SDS011;38063;53.210;6.504;2024-02-23T03:42:35;11.05;;;1.67;;
52057;SDS011;38063;53.210;6.504;2024-02-23T03:45:01;11.63;;;2.25;;
52057;SDS011;38063;53.210;6.504;2024-02-23T03:47:27;8.45;;;1.90;;
52057;SDS011;38063;53.210;6.504;2024-02-23T03:49:53;5.72;;;1.40;;
52057;SDS011;38063;53.210;6.504;2024-02-23T03:52:19;5.50;;;1.38;;
52057;SDS011;38063;53.210;6.504;2024-02-23T03:54:44;10.38;;;1.88;;
52057;SDS011;38063;53.210;6.504;2024-02-23T03:57:10;8.73;;;1.50;;
52057;SDS011;38063;53.210;6.504;2024-02-23T03:59:36;8.15;;;1.40;;
52057;SDS011;38063;53.210;6.504;2024-02-23T04:02:06;9.05;;;1.52;;
52057;SDS011;38063;53.210;6.504;2024-02-23T04:04:32;6.78;;;1.48;;
52057;SDS011;38063;53.210;6.504;2024-02-23T04:06:57;11.32;;;2.67;;
52057;SDS011;38063;53.210;6.504;2024-02-23T04:09:23;11.98;;;1.73;;
52057;SDS011;38063;53.210;6.504;2024-02-23T04:11:49;10.73;;;2.05;;
52057;SDS011;38063;53.210;6.504;2024-02-23T04:14:15;8.70;;;1.63;;
52057;SDS011;38063;53.210;6.504;2024-02-23T04:16:41;9.82;;;1.52;;
52057;SDS011;38063;53.210;6.504;2024-02-23T04:19:06;9.70;;;1.88;;
52057;SDS011;38063;53.210;6.504;2024-02-23T04:21:32;9.45;;;2.03;;
52057;SDS011;38063;53.210;6.504;2024-02-23T04:23:57;7.28;;;1.50;;
52057;SDS011;38063;53.210;6.504;2024-02-23T04:26:23;8.88;;;1.65;;
52057;SDS011;38063;53.210;6.504;2024-02-23T04:28:49;7.53;;;1.10;;
52057;SDS011;38063;53.210;6.504;2024-02-23T04:31:15;6.07;;;1.25;;
52057;SDS011;38063;53.210;6.504;2024-02-23T04:33:40;11.02;;;1.38;;
52057;SDS011;38063;53.210;6.504;2024-02-23T04:36:06;6.57;;;1.50;;
52057;SDS011;38063;53.210;6.504;2024-02-23T04:38:32;8.45;;;1.52;;
52057;SDS011;38063;53.210;6.504;2024-02-23T04:41:02;9.13;;;1.73;;
52057;SDS011;38063;53.210;6.504;2024-02-23T04:43:29;7.38;;;1.63;;
52057;SDS011;38063;53.210;6.504;2024-02-23T04:45:55;18.27;;;1.40;;
52057;SDS011;38063;53.210;6.504;2024-02-23T04:48:20;10.73;;;1.98;;
52057;SDS011;38063;53.210;6.504;2024-02-23T04:50:46;12.00;;;1.42;;
52057;SDS011;38063;53.210;6.504;2024-02-23T04:53:12;10.07;;;1.40;;
52057;SDS011;38063;53.210;6.504;2024-02-23T04:55:37;14.20;;;1.60;;
52057;SDS011;38063;53.210;6.504;2024-02-23T04:58:03;13.90;;;1.45;;
52057;SDS011;38063;53.210;6.504;2024-02-23T05:00:29;10.63;;;1.13;;
52057;SDS011;38063;53.210;6.504;2024-02-23T05:03:01;8.45;;;1.55;;
52057;SDS011;38063;53.210;6.504;2024-02-23T05:05:30;7.22;;;1.30;;
52057;SDS011;38063;53.210;6.504;2024-02-23T05:07:56;8.98;;;1.52;;
52057;SDS011;38063;53.210;6.504;2024-02-23T05:10:22;6.85;;;1.60;;
52057;SDS011;38063;53.210;6.504;2024-02-23T05:12:48;8.75;;;1.30;;
52057;SDS011;38063;53.210;6.504;2024-02-23T05:15:14;8.35;;;1.45;;
52057;SDS011;38063;53.210;6.504;2024-02-23T05:17:39;8.60;;;2.92;;
52057;SDS011;38063;53.210;6.504;2024-02-23T05:20:05;7.75;;;1.30;;
52057;SDS011;38063;53.210;6.504;2024-02-23T05:22:35;9.52;;;1.80;;
52057;SDS011;38063;53.210;6.504;2024-02-23T05:25:04;7.32;;;1.50;;
52057;SDS011;38063;53.210;6.504;2024-02-23T05:27:31;6.05;;;1.58;;
52057;SDS011;38063;53.210;6.504;2024-02-23T05:29:56;9.20;;;1.35;;
52057;SDS011;38063;53.210;6.504;2024-02-23T05:32:22;13.65;;;1.70;;
52057;SDS011;38063;53.210;6.504;2024-02-23T05:34:48;8.65;;;1.42;;
52057;SDS011;38063;53.210;6.504;2024-02-23T05:37:16;8.68;;;1.50;;
52057;SDS011;38063;53.210;6.504;2024-02-23T05:39:42;8.82;;;1.50;;
52057;SDS011;38063;53.210;6.504;2024-02-23T05:42:09;5.53;;;1.40;;
52057;SDS011;38063;53.210;6.504;2024-02-23T05:44:35;16.30;;;1.73;;
52057;SDS011;38063;53.210;6.504;2024-02-23T05:47:01;13.30;;;1.45;;
52057;SDS011;38063;53.210;6.504;2024-02-23T05:49:27;10.77;;;2.67;;
52057;SDS011;38063;53.210;6.504;2024-02-23T05:51:52;6.47;;;1.25;;
52057;SDS011;38063;53.210;6.504;2024-02-23T05:54:18;3.88;;;1.10;;
52057;SDS011;38063;53.210;6.504;2024-02-23T05:56:44;11.38;;;2.28;;
52057;SDS011;38063;53.210;6.504;2024-02-23T05:59:10;9.35;;;1.70;;
52057;SDS011;38063;53.210;6.504;2024-02-23T06:01:36;8.73;;;1.83;;
52057;SDS011;38063;53.210;6.504;2024-02-23T06:04:02;11.55;;;2.00;;
52057;SDS011;38063;53.210;6.504;2024-02-23T06:06:28;6.38;;;2.20;;
52057;SDS011;38063;53.210;6.504;2024-02-23T06:08:54;10.70;;;2.70;;
52057;SDS011;38063;53.210;6.504;2024-02-23T06:11:20;12.73;;;2.80;;
52057;SDS011;38063;53.210;6.504;2024-02-23T06:13:46;9.85;;;3.20;;
52057;SDS011;38063;53.210;6.504;2024-02-23T06:16:12;11.45;;;3.45;;
52057;SDS011;38063;53.210;6.504;2024-02-23T06:18:38;11.70;;;3.83;;
52057;SDS011;38063;53.210;6.504;2024-02-23T06:21:16;16.45;;;4.15;;
52057;SDS011;38063;53.210;6.504;2024-02-23T06:23:43;16.35;;;4.22;;
52057;SDS011;38063;53.210;6.504;2024-02-23T06:26:09;8.70;;;4.03;;
52057;SDS011;38063;53.210;6.504;2024-02-23T06:28:35;9.30;;;3.83;;
52057;SDS011;38063;53.210;6.504;2024-02-23T06:31:04;12.90;;;4.50;;
52057;SDS011;38063;53.210;6.504;2024-02-23T06:33:30;13.73;;;4.68;;
52057;SDS011;38063;53.210;6.504;2024-02-23T06:35:56;10.02;;;4.45;;
52057;SDS011;38063;53.210;6.504;2024-02-23T06:38:22;10.85;;;4.55;;
52057;SDS011;38063;53.210;6.504;2024-02-23T06:40:48;9.27;;;4.20;;
52057;SDS011;38063;53.210;6.504;2024-02-23T06:43:13;15.25;;;5.05;;
52057;SDS011;38063;53.210;6.504;2024-02-23T06:45:39;14.35;;;4.50;;
52057;SDS011;38063;53.210;6.504;2024-02-23T06:48:05;13.30;;;5.07;;
52057;SDS011;38063;53.210;6.504;2024-02-23T06:50:31;16.42;;;4.75;;
52057;SDS011;38063;53.210;6.504;2024-02-23T06:52:56;17.83;;;4.95;;
52057;SDS011;38063;53.210;6.504;2024-02-23T06:55:22;13.77;;;4.80;;
52057;SDS011;38063;53.210;6.504;2024-02-23T06:57:47;19.88;;;5.10;;
52057;SDS011;38063;53.210;6.504;2024-02-23T07:00:13;13.35;;;4.68;;
52057;SDS011;38063;53.210;6.504;2024-02-23T07:02:39;16.30;;;5.30;;
52057;SDS011;38063;53.210;6.504;2024-02-23T07:05:05;16.80;;;5.30;;
52057;SDS011;38063;53.210;6.504;2024-02-23T07:07:32;12.35;;;6.00;;
52057;SDS011;38063;53.210;6.504;2024-02-23T07:10:01;13.80;;;5.10;;
52057;SDS011;38063;53.210;6.504;2024-02-23T07:12:27;17.95;;;5.72;;
52057;SDS011;38063;53.210;6.504;2024-02-23T07:14:54;14.27;;;5.30;;
52057;SDS011;38063;53.210;6.504;2024-02-23T07:17:20;13.45;;;5.95;;
52057;SDS011;38063;53.210;6.504;2024-02-23T07:19:46;14.30;;;5.95;;
52057;SDS011;38063;53.210;6.504;2024-02-23T07:22:12;14.10;;;5.88;;
52057;SDS011;38063;53.210;6.504;2024-02-23T07:24:41;13.90;;;6.43;;
52057;SDS011;38063;53.210;6.504;2024-02-23T07:27:07;11.98;;;5.53;;
52057;SDS011;38063;53.210;6.504;2024-02-23T07:29:33;11.20;;;5.63;;
52057;SDS011;38063;53.210;6.504;2024-02-23T07:31:59;14.57;;;5.80;;
52057;SDS011;38063;53.210;6.504;2024-02-23T07:34:24;14.68;;;5.63;;
52057;SDS011;38063;53.210;6.504;2024-02-23T07:36:53;13.48;;;5.85;;
52057;SDS011;38063;53.210;6.504;2024-02-23T07:39:19;14.77;;;5.60;;
52057;SDS011;38063;53.210;6.504;2024-02-23T07:41:45;9.98;;;4.47;;
52057;SDS011;38063;53.210;6.504;2024-02-23T07:44:14;9.35;;;4.45;;
52057;SDS011;38063;53.210;6.504;2024-02-23T07:46:39;14.52;;;5.18;;
52057;SDS011;38063;53.210;6.504;2024-02-23T07:49:06;10.70;;;4.50;;
52057;SDS011;38063;53.210;6.504;2024-02-23T07:51:32;9.07;;;4.15;;
52057;SDS011;38063;53.210;6.504;2024-02-23T07:53:58;9.32;;;5.43;;
52057;SDS011;38063;53.210;6.504;2024-02-23T07:56:24;9.15;;;4.15;;
52057;SDS011;38063;53.210;6.504;2024-02-23T07:58:49;10.45;;;4.60;;
52057;SDS011;38063;53.210;6.504;2024-02-23T08:01:15;12.68;;;4.50;;
52057;SDS011;38063;53.210;6.504;2024-02-23T08:03:41;10.77;;;4.35;;
52057;SDS011;38063;53.210;6.504;2024-02-23T08:06:07;9.07;;;4.50;;
52057;SDS011;38063;53.210;6.504;2024-02-23T08:08:32;9.45;;;3.88;;
52057;SDS011;38063;53.210;6.504;2024-02-23T08:11:02;14.07;;;4.53;;
52057;SDS011;38063;53.210;6.504;2024-02-23T08:13:28;11.65;;;4.47;;
52057;SDS011;38063;53.210;6.504;2024-02-23T08:15:54;9.25;;;3.78;;
52057;SDS011;38063;53.210;6.504;2024-02-23T08:18:20;10.88;;;3.65;;
52057;SDS011;38063;53.210;6.504;2024-02-23T08:20:47;6.68;;;3.60;;
52057;SDS011;38063;53.210;6.504;2024-02-23T08:23:13;7.22;;;3.35;;
52057;SDS011;38063;53.210;6.504;2024-02-23T08:25:39;10.88;;;3.85;;
52057;SDS011;38063;53.210;6.504;2024-02-23T08:28:05;9.05;;;3.47;;
52057;SDS011;38063;53.210;6.504;2024-02-23T08:30:31;8.80;;;3.60;;
52057;SDS011;38063;53.210;6.504;2024-02-23T08:32:57;8.93;;;3.78;;
52057;SDS011;38063;53.210;6.504;2024-02-23T08:35:23;9.65;;;3.22;;
52057;SDS011;38063;53.210;6.504;2024-02-23T08:37:48;6.35;;;2.78;;
52057;SDS011;38063;53.210;6.504;2024-02-23T08:40:14;7.03;;;2.90;;
52057;SDS011;38063;53.210;6.504;2024-02-23T08:42:40;8.40;;;2.88;;
52057;SDS011;38063;53.210;6.504;2024-02-23T08:45:06;4.47;;;2.30;;
52057;SDS011;38063;53.210;6.504;2024-02-23T08:47:31;6.85;;;2.50;;
52057;SDS011;38063;53.210;6.504;2024-02-23T08:49:59;6.00;;;2.05;;
52057;SDS011;38063;53.210;6.504;2024-02-23T08:52:25;11.48;;;2.33;;
52057;SDS011;38063;53.210;6.504;2024-02-23T08:54:51;4.72;;;2.13;;
52057;SDS011;38063;53.210;6.504;2024-02-23T08:57:17;9.35;;;2.20;;
52057;SDS011;38063;53.210;6.504;2024-02-23T08:59:45;8.07;;;2.00;;
52057;SDS011;38063;53.210;6.504;2024-02-23T09:02:11;2.55;;;1.52;;
52057;SDS011;38063;53.210;6.504;2024-02-23T09:04:37;11.27;;;2.20;;
52057;SDS011;38063;53.210;6.504;2024-02-23T09:07:03;6.35;;;1.80;;
52057;SDS011;38063;53.210;6.504;2024-02-23T09:09:29;5.97;;;1.65;;
52057;SDS011;38063;53.210;6.504;2024-02-23T09:11:55;4.80;;;1.88;;
52057;SDS011;38063;53.210;6.504;2024-02-23T09:14:20;3.40;;;1.88;;
52057;SDS011;38063;53.210;6.504;2024-02-23T09:16:46;7.50;;;1.55;;
52057;SDS011;38063;53.210;6.504;2024-02-23T09:19:15;6.90;;;2.00;;
52057;SDS011;38063;53.210;6.504;2024-02-23T09:21:41;4.82;;;1.52;;
52057;SDS011;38063;53.210;6.504;2024-02-23T09:24:07;4.50;;;1.60;;
52057;SDS011;38063;53.210;6.504;2024-02-23T09:26:33;8.18;;;1.63;;
52057;SDS011;38063;53.210;6.504;2024-02-23T09:28:58;4.95;;;1.90;;
52057;SDS011;38063;53.210;6.504;2024-02-23T09:31:24;5.45;;;2.28;;
52057;SDS011;38063;53.210;6.504;2024-02-23T09:33:51;7.80;;;1.63;;
52057;SDS011;38063;53.210;6.504;2024-02-23T09:36:17;8.63;;;1.90;;
52057;SDS011;38063;53.210;6.504;2024-02-23T09:38:43;6.32;;;1.70;;
52057;SDS011;38063;53.210;6.504;2024-02-23T09:41:20;5.32;;;1.83;;
52057;SDS011;38063;53.210;6.504;2024-02-23T09:43:47;4.38;;;1.35;;
52057;SDS011;38063;53.210;6.504;2024-02-23T09:46:14;7.32;;;2.17;;
52057;SDS011;38063;53.210;6.504;2024-02-23T09:48:42;7.65;;;1.50;;
52057;SDS011;38063;53.210;6.504;2024-02-23T09:51:14;4.60;;;1.48;;
52057;SDS011;38063;53.210;6.504;2024-02-23T09:53:41;5.60;;;1.70;;
52057;SDS011;38063;53.210;6.504;2024-02-23T09:56:10;9.23;;;2.03;;
52057;SDS011;38063;53.210;6.504;2024-02-23T09:58:36;7.85;;;1.63;;
52057;SDS011;38063;53.210;6.504;2024-02-23T10:01:02;5.18;;;1.38;;
52057;SDS011;38063;53.210;6.504;2024-02-23T10:03:29;6.35;;;1.70;;
52057;SDS011;38063;53.210;6.504;2024-02-23T10:05:58;6.53;;;1.40;;
52057;SDS011;38063;53.210;6.504;2024-02-23T10:08:28;4.70;;;1.25;;
52057;SDS011;38063;53.210;6.504;2024-02-23T10:10:54;6.68;;;1.60;;
52057;SDS011;38063;53.210;6.504;2024-02-23T10:13:21;5.65;;;1.38;;
52057;SDS011;38063;53.210;6.504;2024-02-23T10:15:49;6.80;;;1.50;;
52057;SDS011;38063;53.210;6.504;2024-02-23T10:18:15;4.30;;;1.20;;
52057;SDS011;38063;53.210;6.504;2024-02-23T10:20:41;6.30;;;1.30;;
52057;SDS011;38063;53.210;6.504;2024-02-23T10:23:07;7.72;;;1.33;;
52057;SDS011;38063;53.210;6.504;2024-02-23T10:25:34;5.13;;;2.03;;
52057;SDS011;38063;53.210;6.504;2024-02-23T10:28:03;2.88;;;1.15;;
52057;SDS011;38063;53.210;6.504;2024-02-23T10:30:30;8.15;;;1.35;;
52057;SDS011;38063;53.210;6.504;2024-02-23T10:32:56;5.45;;;1.15;;
52057;SDS011;38063;53.210;6.504;2024-02-23T10:35:23;4.30;;;1.17;;
52057;SDS011;38063;53.210;6.504;2024-02-23T10:37:50;7.28;;;1.38;;
52057;SDS011;38063;53.210;6.504;2024-02-23T10:40:17;8.20;;;1.15;;
52057;SDS011;38063;53.210;6.504;2024-02-23T10:42:44;2.55;;;1.00;;
52057;SDS011;38063;53.210;6.504;2024-02-23T10:45:19;4.40;;;1.40;;
52057;SDS011;38063;53.210;6.504;2024-02-23T10:47:50;4.30;;;0.88;;
52057;SDS011;38063;53.210;6.504;2024-02-23T10:50:16;7.93;;;1.20;;
52057;SDS011;38063;53.210;6.504;2024-02-23T10:52:44;9.70;;;1.30;;
52057;SDS011;38063;53.210;6.504;2024-02-23T10:55:11;3.83;;;1.08;;
52057;SDS011;38063;53.210;6.504;2024-02-23T10:57:39;4.20;;;1.15;;
52057;SDS011;38063;53.210;6.504;2024-02-23T11:00:05;3.75;;;0.93;;
52057;SDS011;38063;53.210;6.504;2024-02-23T11:02:36;3.42;;;0.88;;
52057;SDS011;38063;53.210;6.504;2024-02-23T11:05:06;4.90;;;1.58;;
52057;SDS011;38063;53.210;6.504;2024-02-23T11:07:37;3.78;;;0.85;;
52057;SDS011;38063;53.210;6.504;2024-02-23T11:10:04;3.97;;;1.00;;
52057;SDS011;38063;53.210;6.504;2024-02-23T11:12:30;9.77;;;1.40;;
52057;SDS011;38063;53.210;6.504;2024-02-23T11:14:57;5.75;;;1.20;;
52057;SDS011;38063;53.210;6.504;2024-02-23T11:17:26;6.15;;;1.50;;
52057;SDS011;38063;53.210;6.504;2024-02-23T11:19:54;3.65;;;1.10;;
52057;SDS011;38063;53.210;6.504;2024-02-23T11:22:27;5.57;;;1.15;;
52057;SDS011;38063;53.210;6.504;2024-02-23T11:24:59;2.60;;;1.23;;
52057;SDS011;38063;53.210;6.504;2024-02-23T11:27:31;4.82;;;0.82;;
52057;SDS011;38063;53.210;6.504;2024-02-23T11:32:41;5.57;;;1.27;;
52057;SDS011;38063;53.210;6.504;2024-02-23T11:35:08;10.63;;;1.20;;
52057;SDS011;38063;53.210;6.504;2024-02-23T11:37:49;7.00;;;1.70;;
52057;SDS011;38063;53.210;6.504;2024-02-23T11:40:28;6.03;;;1.13;;
52057;SDS011;38063;53.210;6.504;2024-02-23T11:42:55;4.07;;;1.00;;
52057;SDS011;38063;53.210;6.504;2024-02-23T11:45:21;3.83;;;1.45;;
52057;SDS011;38063;53.210;6.504;2024-02-23T11:47:48;4.43;;;1.35;;
52057;SDS011;38063;53.210;6.504;2024-02-23T11:50:14;4.57;;;1.10;;
52057;SDS011;38063;53.210;6.504;2024-02-23T11:52:46;5.15;;;1.20;;
52057;SDS011;38063;53.210;6.504;2024-02-23T11:55:12;6.45;;;1.20;;
52057;SDS011;38063;53.210;6.504;2024-02-23T11:57:49;5.47;;;1.20;;
52057;SDS011;38063;53.210;6.504;2024-02-23T12:00:15;3.75;;;1.10;;
52057;SDS011;38063;53.210;6.504;2024-02-23T12:02:42;9.90;;;2.63;;
52057;SDS011;38063;53.210;6.504;2024-02-23T12:05:14;6.28;;;1.20;;
52057;SDS011;38063;53.210;6.504;2024-02-23T12:07:40;3.47;;;1.02;;
52057;SDS011;38063;53.210;6.504;2024-02-23T12:10:06;4.10;;;1.13;;
52057;SDS011;38063;53.210;6.504;2024-02-23T12:12:32;7.35;;;1.30;;
52057;SDS011;38063;53.210;6.504;2024-02-23T12:14:58;5.45;;;1.15;;
52057;SDS011;38063;53.210;6.504;2024-02-23T12:17:24;6.72;;;1.30;;
52057;SDS011;38063;53.210;6.504;2024-02-23T12:19:57;13.25;;;1.70;;
52057;SDS011;38063;53.210;6.504;2024-02-23T12:22:26;6.15;;;1.45;;
52057;SDS011;38063;53.210;6.504;2024-02-23T12:24:52;6.22;;;1.40;;
52057;SDS011;38063;53.210;6.504;2024-02-23T12:27:18;8.55;;;1.13;;
52057;SDS011;38063;53.210;6.504;2024-02-23T12:29:54;7.20;;;1.60;;
52057;SDS011;38063;53.210;6.504;2024-02-23T12:32:20;5.45;;;1.40;;
52057;SDS011;38063;53.210;6.504;2024-02-23T12:34:46;6.65;;;1.35;;
52057;SDS011;38063;53.210;6.504;2024-02-23T12:37:15;5.15;;;1.20;;
52057;SDS011;38063;53.210;6.504;2024-02-23T12:39:42;8.82;;;1.23;;
52057;SDS011;38063;53.210;6.504;2024-02-23T12:42:08;4.55;;;1.23;;
52057;SDS011;38063;53.210;6.504;2024-02-23T12:44:35;5.85;;;1.40;;
52057;SDS011;38063;53.210;6.504;2024-02-23T12:47:00;3.55;;;1.25;;
52057;SDS011;38063;53.210;6.504;2024-02-23T12:49:26;2.95;;;1.00;;
52057;SDS011;38063;53.210;6.504;2024-02-23T12:51:52;5.07;;;1.30;;
52057;SDS011;38063;53.210;6.504;2024-02-23T12:54:17;3.95;;;1.30;;
52057;SDS011;38063;53.210;6.504;2024-02-23T12:56:43;4.00;;;1.20;;
52057;SDS011;38063;53.210;6.504;2024-02-23T12:59:09;7.20;;;1.60;;
52057;SDS011;38063;53.210;6.504;2024-02-23T13:01:35;5.90;;;1.40;;
52057;SDS011;38063;53.210;6.504;2024-02-23T13:04:03;5.18;;;1.50;;
52057;SDS011;38063;53.210;6.504;2024-02-23T13:06:35;4.95;;;1.40;;
52057;SDS011;38063;53.210;6.504;2024-02-23T13:09:04;4.53;;;1.30;;
52057;SDS011;38063;53.210;6.504;2024-02-23T13:11:33;4.93;;;1.20;;
52057;SDS011;38063;53.210;6.504;2024-02-23T13:14:03;4.72;;;1.20;;
52057;SDS011;38063;53.210;6.504;2024-02-23T13:16:28;6.13;;;1.58;;
52057;SDS011;38063;53.210;6.504;2024-02-23T13:18:55;3.80;;;1.35;;
52057;SDS011;38063;53.210;6.504;2024-02-23T13:21:20;8.95;;;1.63;;
52057;SDS011;38063;53.210;6.504;2024-02-23T13:23:46;6.65;;;1.20;;
52057;SDS011;38063;53.210;6.504;2024-02-23T13:26:12;4.00;;;1.38;;
52057;SDS011;38063;53.210;6.504;2024-02-23T13:28:40;6.03;;;1.27;;
52057;SDS011;38063;53.210;6.504;2024-02-23T13:31:11;6.93;;;1.60;;
52057;SDS011;38063;53.210;6.504;2024-02-23T13:33:38;3.45;;;1.40;;
52057;SDS011;38063;53.210;6.504;2024-02-23T13:36:04;4.68;;;1.33;;
52057;SDS011;38063;53.210;6.504;2024-02-23T13:38:30;4.25;;;1.30;;
52057;SDS011;38063;53.210;6.504;2024-02-23T13:40:56;7.13;;;1.60;;
52057;SDS011;38063;53.210;6.504;2024-02-23T13:43:21;3.28;;;1.60;;
52057;SDS011;38063;53.210;6.504;2024-02-23T13:45:48;4.30;;;1.40;;
52057;SDS011;38063;53.210;6.504;2024-02-23T13:48:18;3.95;;;1.42;;
52057;SDS011;38063;53.210;6.504;2024-02-23T13:50:45;3.97;;;1.38;;
52057;SDS011;38063;53.210;6.504;2024-02-23T13:53:12;3.83;;;1.67;;
52057;SDS011;38063;53.210;6.504;2024-02-23T13:55:38;3.90;;;1.45;;
52057;SDS011;38063;53.210;6.504;2024-02-23T13:58:04;4.60;;;1.70;;
52057;SDS011;38063;53.210;6.504;2024-02-23T14:00:30;3.20;;;1.50;;
52057;SDS011;38063;53.210;6.504;2024-02-23T14:02:56;8.38;;;1.80;;
52057;SDS011;38063;53.210;6.504;2024-02-23T14:05:22;5.35;;;1.42;;
52057;SDS011;38063;53.210;6.504;2024-02-23T14:07:50;6.53;;;1.77;;
52057;SDS011;38063;53.210;6.504;2024-02-23T14:10:18;8.27;;;1.60;;
52057;SDS011;38063;53.210;6.504;2024-02-23T14:12:43;5.47;;;1.92;;
52057;SDS011;38063;53.210;6.504;2024-02-23T14:15:09;6.30;;;1.40;;
52057;SDS011;38063;53.210;6.504;2024-02-23T14:17:37;5.53;;;1.75;;
52057;SDS011;38063;53.210;6.504;2024-02-23T14:20:04;3.58;;;1.52;;
52057;SDS011;38063;53.210;6.504;2024-02-23T14:22:31;7.20;;;1.48;;
52057;SDS011;38063;53.210;6.504;2024-02-23T14:24:57;3.75;;;1.45;;
52057;SDS011;38063;53.210;6.504;2024-02-23T14:27:23;5.90;;;1.80;;
52057;SDS011;38063;53.210;6.504;2024-02-23T14:29:49;3.17;;;2.05;;
52057;SDS011;38063;53.210;6.504;2024-02-23T14:32:15;3.30;;;1.45;;
52057;SDS011;38063;53.210;6.504;2024-02-23T14:34:42;5.43;;;1.58;;
52057;SDS011;38063;53.210;6.504;2024-02-23T14:37:08;3.63;;;1.50;;
52057;SDS011;38063;53.210;6.504;2024-02-23T14:39:33;2.65;;;1.35;;
52057;SDS011;38063;53.210;6.504;2024-02-23T14:41:59;4.82;;;2.33;;
52057;SDS011;38063;53.210;6.504;2024-02-23T14:44:25;4.78;;;1.77;;
52057;SDS011;38063;53.210;6.504;2024-02-23T14:46:51;4.72;;;1.88;;
52057;SDS011;38063;53.210;6.504;2024-02-23T14:49:17;4.00;;;1.85;;